sensor_id;sensor_type;location;lat;lon;timestamp;P1;durP1;ratioP1;P2;durP2;ratioP2
64678;SDS011;51094;53.864;27.676;2024-01-30T00:01:57;3.72;;;3.72;;
64678;SDS011;51094;53.864;27.676;2024-01-30T00:04:24;3.67;;;3.67;;
64678;SDS011;51094;53.864;27.676;2024-01-30T00:06:51;4.07;;;3.97;;
64678;SDS011;51094;53.864;27.676;2024-01-30T00:09:19;3.53;;;3.53;;
64678;SDS011;51094;53.864;27.676;2024-01-30T00:11:46;3.70;;;3.70;;
64678;SDS011;51094;53.864;27.676;2024-01-30T00:14:19;3.45;;;3.42;;
64678;SDS011;51094;53.864;27.676;2024-01-30T00:16:46;3.60;;;3.50;;
64678;SDS011;51094;53.864;27.676;2024-01-30T00:19:13;3.67;;;3.60;;
64678;SDS011;51094;53.864;27.676;2024-01-30T00:21:40;3.75;;;3.65;;
64678;SDS011;51094;53.864;27.676;2024-01-30T00:24:07;3.78;;;3.78;;
64678;SDS011;51094;53.864;27.676;2024-01-30T00:26:34;3.83;;;3.72;;
64678;SDS011;51094;53.864;27.676;2024-01-30T00:29:01;4.00;;;4.00;;
64678;SDS011;51094;53.864;27.676;2024-01-30T00:31:29;3.70;;;3.70;;
64678;SDS011;51094;53.864;27.676;2024-01-30T00:33:56;3.88;;;3.88;;
64678;SDS011;51094;53.864;27.676;2024-01-30T00:36:23;4.25;;;4.15;;
64678;SDS011;51094;53.864;27.676;2024-01-30T00:38:50;4.40;;;4.30;;
64678;SDS011;51094;53.864;27.676;2024-01-30T00:41:17;4.47;;;4.38;;
64678;SDS011;51094;53.864;27.676;2024-01-30T00:43:45;4.40;;;4.30;;
64678;SDS011;51094;53.864;27.676;2024-01-30T00:46:13;4.38;;;4.28;;
64678;SDS011;51094;53.864;27.676;2024-01-30T00:48:39;4.80;;;4.70;;
64678;SDS011;51094;53.864;27.676;2024-01-30T00:51:07;4.43;;;4.38;;
64678;SDS011;51094;53.864;27.676;2024-01-30T00:53:34;4.40;;;4.30;;
64678;SDS011;51094;53.864;27.676;2024-01-30T00:56:02;4.50;;;4.40;;
64678;SDS011;51094;53.864;27.676;2024-01-30T00:58:29;4.80;;;4.70;;
64678;SDS011;51094;53.864;27.676;2024-01-30T01:00:57;4.57;;;4.47;;
64678;SDS011;51094;53.864;27.676;2024-01-30T01:03:24;3.75;;;3.75;;
64678;SDS011;51094;53.864;27.676;2024-01-30T01:05:51;3.97;;;3.97;;
64678;SDS011;51094;53.864;27.676;2024-01-30T01:08:18;4.30;;;4.20;;
64678;SDS011;51094;53.864;27.676;2024-01-30T01:10:45;3.95;;;3.95;;
64678;SDS011;51094;53.864;27.676;2024-01-30T01:13:12;4.00;;;3.90;;
64678;SDS011;51094;53.864;27.676;2024-01-30T01:15:40;4.30;;;4.20;;
64678;SDS011;51094;53.864;27.676;2024-01-30T01:18:07;4.30;;;4.20;;
64678;SDS011;51094;53.864;27.676;2024-01-30T01:20:34;4.53;;;4.43;;
64678;SDS011;51094;53.864;27.676;2024-01-30T01:23:03;4.28;;;4.28;;
64678;SDS011;51094;53.864;27.676;2024-01-30T01:25:38;3.97;;;3.97;;
64678;SDS011;51094;53.864;27.676;2024-01-30T01:28:05;4.20;;;4.10;;
64678;SDS011;51094;53.864;27.676;2024-01-30T01:30:32;4.05;;;4.00;;
64678;SDS011;51094;53.864;27.676;2024-01-30T01:33:00;4.07;;;4.07;;
64678;SDS011;51094;53.864;27.676;2024-01-30T01:35:29;3.92;;;3.83;;
64678;SDS011;51094;53.864;27.676;2024-01-30T01:37:56;3.83;;;3.72;;
64678;SDS011;51094;53.864;27.676;2024-01-30T01:40:24;4.00;;;4.00;;
64678;SDS011;51094;53.864;27.676;2024-01-30T01:42:53;3.92;;;3.92;;
64678;SDS011;51094;53.864;27.676;2024-01-30T01:45:24;4.65;;;4.55;;
64678;SDS011;51094;53.864;27.676;2024-01-30T01:47:51;4.70;;;4.60;;
64678;SDS011;51094;53.864;27.676;2024-01-30T01:50:22;4.45;;;4.35;;
64678;SDS011;51094;53.864;27.676;2024-01-30T01:52:50;4.43;;;4.32;;
64678;SDS011;51094;53.864;27.676;2024-01-30T01:55:19;4.22;;;4.22;;
64678;SDS011;51094;53.864;27.676;2024-01-30T01:57:49;4.32;;;4.22;;
64678;SDS011;51094;53.864;27.676;2024-01-30T02:00:16;4.47;;;4.38;;
64678;SDS011;51094;53.864;27.676;2024-01-30T02:02:46;4.50;;;4.40;;
64678;SDS011;51094;53.864;27.676;2024-01-30T02:05:16;4.68;;;4.57;;
64678;SDS011;51094;53.864;27.676;2024-01-30T02:07:43;4.40;;;4.32;;
64678;SDS011;51094;53.864;27.676;2024-01-30T02:10:10;4.32;;;4.22;;
64678;SDS011;51094;53.864;27.676;2024-01-30T02:12:38;4.60;;;4.50;;
64678;SDS011;51094;53.864;27.676;2024-01-30T02:15:05;4.28;;;4.20;;
64678;SDS011;51094;53.864;27.676;2024-01-30T02:17:36;3.90;;;3.90;;
64678;SDS011;51094;53.864;27.676;2024-01-30T02:20:12;4.60;;;4.50;;
64678;SDS011;51094;53.864;27.676;2024-01-30T02:22:48;4.65;;;4.55;;
64678;SDS011;51094;53.864;27.676;2024-01-30T02:25:16;4.70;;;4.60;;
64678;SDS011;51094;53.864;27.676;2024-01-30T02:27:43;4.53;;;4.43;;
64678;SDS011;51094;53.864;27.676;2024-01-30T02:30:10;4.70;;;4.60;;
64678;SDS011;51094;53.864;27.676;2024-01-30T02:32:37;4.53;;;4.43;;
64678;SDS011;51094;53.864;27.676;2024-01-30T02:35:04;4.70;;;4.60;;
64678;SDS011;51094;53.864;27.676;2024-01-30T02:37:31;4.70;;;4.60;;
64678;SDS011;51094;53.864;27.676;2024-01-30T02:39:58;4.72;;;4.63;;
64678;SDS011;51094;53.864;27.676;2024-01-30T02:42:25;4.70;;;4.70;;
64678;SDS011;51094;53.864;27.676;2024-01-30T02:44:52;5.07;;;4.97;;
64678;SDS011;51094;53.864;27.676;2024-01-30T02:47:19;5.28;;;5.18;;
64678;SDS011;51094;53.864;27.676;2024-01-30T02:49:47;5.07;;;4.97;;
64678;SDS011;51094;53.864;27.676;2024-01-30T02:52:14;5.20;;;5.10;;
64678;SDS011;51094;53.864;27.676;2024-01-30T02:54:41;4.95;;;4.85;;
64678;SDS011;51094;53.864;27.676;2024-01-30T02:57:08;4.93;;;4.82;;
64678;SDS011;51094;53.864;27.676;2024-01-30T02:59:34;5.05;;;4.95;;
64678;SDS011;51094;53.864;27.676;2024-01-30T03:02:02;4.93;;;4.82;;
64678;SDS011;51094;53.864;27.676;2024-01-30T03:04:29;4.88;;;4.78;;
64678;SDS011;51094;53.864;27.676;2024-01-30T03:06:59;4.78;;;4.68;;
64678;SDS011;51094;53.864;27.676;2024-01-30T03:09:26;5.10;;;5.00;;
64678;SDS011;51094;53.864;27.676;2024-01-30T03:11:54;4.82;;;4.72;;
64678;SDS011;51094;53.864;27.676;2024-01-30T03:14:20;5.20;;;5.10;;
64678;SDS011;51094;53.864;27.676;2024-01-30T03:16:47;5.28;;;5.18;;
64678;SDS011;51094;53.864;27.676;2024-01-30T03:19:15;4.80;;;4.70;;
64678;SDS011;51094;53.864;27.676;2024-01-30T03:24:11;4.80;;;4.70;;
64678;SDS011;51094;53.864;27.676;2024-01-30T03:26:41;5.13;;;5.03;;
64678;SDS011;51094;53.864;27.676;2024-01-30T03:29:08;5.38;;;5.28;;
64678;SDS011;51094;53.864;27.676;2024-01-30T03:31:35;4.68;;;4.60;;
64678;SDS011;51094;53.864;27.676;2024-01-30T03:34:02;4.85;;;4.75;;
64678;SDS011;51094;53.864;27.676;2024-01-30T03:36:29;5.18;;;5.07;;
64678;SDS011;51094;53.864;27.676;2024-01-30T03:38:59;5.05;;;4.95;;
64678;SDS011;51094;53.864;27.676;2024-01-30T03:41:26;4.75;;;4.65;;
64678;SDS011;51094;53.864;27.676;2024-01-30T03:43:53;5.18;;;5.07;;
64678;SDS011;51094;53.864;27.676;2024-01-30T03:46:20;4.97;;;4.88;;
64678;SDS011;51094;53.864;27.676;2024-01-30T03:48:47;5.25;;;5.15;;
64678;SDS011;51094;53.864;27.676;2024-01-30T03:51:14;5.60;;;5.50;;
64678;SDS011;51094;53.864;27.676;2024-01-30T03:53:42;5.28;;;5.18;;
64678;SDS011;51094;53.864;27.676;2024-01-30T03:56:10;5.50;;;5.40;;
64678;SDS011;51094;53.864;27.676;2024-01-30T03:58:38;5.45;;;5.35;;
64678;SDS011;51094;53.864;27.676;2024-01-30T04:01:05;5.18;;;5.07;;
64678;SDS011;51094;53.864;27.676;2024-01-30T04:03:32;5.40;;;5.30;;
64678;SDS011;51094;53.864;27.676;2024-01-30T04:05:59;5.90;;;5.80;;
64678;SDS011;51094;53.864;27.676;2024-01-30T04:08:27;5.47;;;5.38;;
64678;SDS011;51094;53.864;27.676;2024-01-30T04:10:54;5.40;;;5.30;;
64678;SDS011;51094;53.864;27.676;2024-01-30T04:13:21;5.65;;;5.55;;
64678;SDS011;51094;53.864;27.676;2024-01-30T04:15:48;5.28;;;5.18;;
64678;SDS011;51094;53.864;27.676;2024-01-30T04:18:15;5.78;;;5.68;;
64678;SDS011;51094;53.864;27.676;2024-01-30T04:20:44;5.38;;;5.28;;
64678;SDS011;51094;53.864;27.676;2024-01-30T04:23:11;5.78;;;5.68;;
64678;SDS011;51094;53.864;27.676;2024-01-30T04:25:38;5.78;;;5.68;;
64678;SDS011;51094;53.864;27.676;2024-01-30T04:28:05;6.03;;;5.93;;
64678;SDS011;51094;53.864;27.676;2024-01-30T04:30:32;5.75;;;5.65;;
64678;SDS011;51094;53.864;27.676;2024-01-30T04:32:59;5.43;;;5.32;;
64678;SDS011;51094;53.864;27.676;2024-01-30T04:35:26;5.40;;;5.30;;
64678;SDS011;51094;53.864;27.676;2024-01-30T04:37:53;5.40;;;5.30;;
64678;SDS011;51094;53.864;27.676;2024-01-30T04:40:21;6.15;;;6.05;;
64678;SDS011;51094;53.864;27.676;2024-01-30T04:42:48;5.63;;;5.53;;
64678;SDS011;51094;53.864;27.676;2024-01-30T04:45:15;5.50;;;5.40;;
64678;SDS011;51094;53.864;27.676;2024-01-30T04:47:42;5.88;;;5.78;;
64678;SDS011;51094;53.864;27.676;2024-01-30T04:50:11;5.30;;;5.20;;
64678;SDS011;51094;53.864;27.676;2024-01-30T04:52:38;5.45;;;5.35;;
64678;SDS011;51094;53.864;27.676;2024-01-30T04:55:05;5.43;;;5.32;;
64678;SDS011;51094;53.864;27.676;2024-01-30T04:57:40;5.50;;;5.40;;
64678;SDS011;51094;53.864;27.676;2024-01-30T05:00:07;5.70;;;5.60;;
64678;SDS011;51094;53.864;27.676;2024-01-30T05:02:35;5.93;;;5.82;;
64678;SDS011;51094;53.864;27.676;2024-01-30T05:05:02;5.60;;;5.50;;
64678;SDS011;51094;53.864;27.676;2024-01-30T05:07:33;5.55;;;5.45;;
64678;SDS011;51094;53.864;27.676;2024-01-30T05:10:03;5.22;;;5.13;;
64678;SDS011;51094;53.864;27.676;2024-01-30T05:12:32;5.13;;;5.03;;
64678;SDS011;51094;53.864;27.676;2024-01-30T05:14:59;5.38;;;5.28;;
64678;SDS011;51094;53.864;27.676;2024-01-30T05:17:29;5.55;;;5.45;;
64678;SDS011;51094;53.864;27.676;2024-01-30T05:19:56;5.40;;;5.30;;
64678;SDS011;51094;53.864;27.676;2024-01-30T05:22:23;5.65;;;5.55;;
64678;SDS011;51094;53.864;27.676;2024-01-30T05:24:50;5.80;;;5.70;;
64678;SDS011;51094;53.864;27.676;2024-01-30T05:27:17;5.07;;;4.97;;
64678;SDS011;51094;53.864;27.676;2024-01-30T05:29:44;5.25;;;5.15;;
64678;SDS011;51094;53.864;27.676;2024-01-30T05:32:12;5.38;;;5.28;;
64678;SDS011;51094;53.864;27.676;2024-01-30T05:34:40;5.32;;;5.22;;
64678;SDS011;51094;53.864;27.676;2024-01-30T05:37:11;4.80;;;4.70;;
64678;SDS011;51094;53.864;27.676;2024-01-30T05:39:41;5.20;;;5.10;;
64678;SDS011;51094;53.864;27.676;2024-01-30T05:42:08;5.45;;;5.35;;
64678;SDS011;51094;53.864;27.676;2024-01-30T05:44:35;5.63;;;5.53;;
64678;SDS011;51094;53.864;27.676;2024-01-30T05:47:02;5.50;;;5.40;;
64678;SDS011;51094;53.864;27.676;2024-01-30T05:49:31;5.60;;;5.50;;
64678;SDS011;51094;53.864;27.676;2024-01-30T05:51:59;5.45;;;5.35;;
64678;SDS011;51094;53.864;27.676;2024-01-30T05:54:29;5.47;;;5.38;;
64678;SDS011;51094;53.864;27.676;2024-01-30T05:56:59;5.22;;;5.13;;
64678;SDS011;51094;53.864;27.676;2024-01-30T05:59:26;5.72;;;5.63;;
64678;SDS011;51094;53.864;27.676;2024-01-30T06:01:53;5.93;;;5.82;;
64678;SDS011;51094;53.864;27.676;2024-01-30T06:04:20;6.00;;;5.90;;
64678;SDS011;51094;53.864;27.676;2024-01-30T06:06:59;5.88;;;5.78;;
64678;SDS011;51094;53.864;27.676;2024-01-30T06:09:28;5.40;;;5.30;;
64678;SDS011;51094;53.864;27.676;2024-01-30T06:11:55;6.03;;;5.93;;
64678;SDS011;51094;53.864;27.676;2024-01-30T06:14:22;5.90;;;5.80;;
64678;SDS011;51094;53.864;27.676;2024-01-30T06:16:50;5.72;;;5.63;;
64678;SDS011;51094;53.864;27.676;2024-01-30T06:19:16;5.85;;;5.75;;
64678;SDS011;51094;53.864;27.676;2024-01-30T06:21:44;6.03;;;5.93;;
64678;SDS011;51094;53.864;27.676;2024-01-30T06:24:13;6.10;;;6.00;;
64678;SDS011;51094;53.864;27.676;2024-01-30T06:26:40;5.70;;;5.60;;
64678;SDS011;51094;53.864;27.676;2024-01-30T06:29:07;5.75;;;5.65;;
64678;SDS011;51094;53.864;27.676;2024-01-30T06:31:40;5.95;;;5.85;;
64678;SDS011;51094;53.864;27.676;2024-01-30T06:34:13;6.00;;;5.90;;
64678;SDS011;51094;53.864;27.676;2024-01-30T06:36:41;5.82;;;5.72;;
64678;SDS011;51094;53.864;27.676;2024-01-30T06:39:08;6.05;;;5.95;;
64678;SDS011;51094;53.864;27.676;2024-01-30T06:41:35;6.00;;;5.90;;
64678;SDS011;51094;53.864;27.676;2024-01-30T06:44:02;5.55;;;5.45;;
64678;SDS011;51094;53.864;27.676;2024-01-30T06:46:31;5.60;;;5.50;;
64678;SDS011;51094;53.864;27.676;2024-01-30T06:49:03;6.10;;;6.00;;
64678;SDS011;51094;53.864;27.676;2024-01-30T06:51:30;6.30;;;6.20;;
64678;SDS011;51094;53.864;27.676;2024-01-30T06:54:02;5.90;;;5.80;;
64678;SDS011;51094;53.864;27.676;2024-01-30T06:56:30;5.95;;;5.85;;
64678;SDS011;51094;53.864;27.676;2024-01-30T06:58:57;5.25;;;5.15;;
64678;SDS011;51094;53.864;27.676;2024-01-30T07:01:29;5.22;;;5.13;;
64678;SDS011;51094;53.864;27.676;2024-01-30T07:03:57;5.00;;;4.90;;
64678;SDS011;51094;53.864;27.676;2024-01-30T07:06:26;5.43;;;5.32;;
64678;SDS011;51094;53.864;27.676;2024-01-30T07:08:53;5.60;;;5.50;;
64678;SDS011;51094;53.864;27.676;2024-01-30T07:11:20;5.43;;;5.32;;
64678;SDS011;51094;53.864;27.676;2024-01-30T07:13:50;5.47;;;5.38;;
64678;SDS011;51094;53.864;27.676;2024-01-30T07:16:17;5.30;;;5.20;;
64678;SDS011;51094;53.864;27.676;2024-01-30T07:18:45;5.90;;;5.80;;
64678;SDS011;51094;53.864;27.676;2024-01-30T07:21:12;5.03;;;4.93;;
64678;SDS011;51094;53.864;27.676;2024-01-30T07:23:39;5.13;;;5.03;;
64678;SDS011;51094;53.864;27.676;2024-01-30T07:28:36;4.78;;;4.68;;
64678;SDS011;51094;53.864;27.676;2024-01-30T07:31:03;4.68;;;4.57;;
64678;SDS011;51094;53.864;27.676;2024-01-30T07:33:30;4.75;;;4.65;;
64678;SDS011;51094;53.864;27.676;2024-01-30T07:35:57;4.88;;;4.78;;
64678;SDS011;51094;53.864;27.676;2024-01-30T07:38:24;4.72;;;4.63;;
64678;SDS011;51094;53.864;27.676;2024-01-30T07:40:51;4.90;;;4.80;;
64678;SDS011;51094;53.864;27.676;2024-01-30T07:43:22;4.80;;;4.70;;
64678;SDS011;51094;53.864;27.676;2024-01-30T07:45:51;4.72;;;4.63;;
64678;SDS011;51094;53.864;27.676;2024-01-30T07:48:18;4.75;;;4.60;;
64678;SDS011;51094;53.864;27.676;2024-01-30T07:50:45;4.80;;;4.70;;
64678;SDS011;51094;53.864;27.676;2024-01-30T07:53:12;4.22;;;4.13;;
64678;SDS011;51094;53.864;27.676;2024-01-30T07:55:40;4.88;;;4.78;;
64678;SDS011;51094;53.864;27.676;2024-01-30T07:58:09;4.68;;;4.57;;
64678;SDS011;51094;53.864;27.676;2024-01-30T08:00:39;4.72;;;4.63;;
64678;SDS011;51094;53.864;27.676;2024-01-30T08:03:06;4.43;;;4.32;;
64678;SDS011;51094;53.864;27.676;2024-01-30T08:05:33;4.63;;;4.53;;
64678;SDS011;51094;53.864;27.676;2024-01-30T08:08:00;4.40;;;4.30;;
64678;SDS011;51094;53.864;27.676;2024-01-30T08:10:27;4.43;;;4.32;;
64678;SDS011;51094;53.864;27.676;2024-01-30T08:12:54;4.15;;;4.05;;
64678;SDS011;51094;53.864;27.676;2024-01-30T08:15:22;4.20;;;4.10;;
64678;SDS011;51094;53.864;27.676;2024-01-30T08:17:49;4.80;;;4.70;;
64678;SDS011;51094;53.864;27.676;2024-01-30T08:20:16;4.60;;;4.50;;
64678;SDS011;51094;53.864;27.676;2024-01-30T08:22:44;4.22;;;4.13;;
64678;SDS011;51094;53.864;27.676;2024-01-30T08:25:11;4.35;;;4.25;;
64678;SDS011;51094;53.864;27.676;2024-01-30T08:27:40;4.57;;;4.47;;
64678;SDS011;51094;53.864;27.676;2024-01-30T08:30:10;4.90;;;4.80;;
64678;SDS011;51094;53.864;27.676;2024-01-30T08:32:37;4.50;;;4.40;;
64678;SDS011;51094;53.864;27.676;2024-01-30T08:35:04;4.18;;;4.07;;
64678;SDS011;51094;53.864;27.676;2024-01-30T08:37:32;4.30;;;4.20;;
64678;SDS011;51094;53.864;27.676;2024-01-30T08:40:00;4.50;;;4.40;;
64678;SDS011;51094;53.864;27.676;2024-01-30T08:42:31;4.70;;;4.60;;
64678;SDS011;51094;53.864;27.676;2024-01-30T08:45:05;4.00;;;3.90;;
64678;SDS011;51094;53.864;27.676;2024-01-30T08:47:37;4.25;;;4.15;;
64678;SDS011;51094;53.864;27.676;2024-01-30T08:50:07;4.35;;;4.25;;
64678;SDS011;51094;53.864;27.676;2024-01-30T08:52:39;4.30;;;4.20;;
64678;SDS011;51094;53.864;27.676;2024-01-30T08:55:06;4.50;;;4.40;;
64678;SDS011;51094;53.864;27.676;2024-01-30T08:57:33;4.30;;;4.20;;
64678;SDS011;51094;53.864;27.676;2024-01-30T09:00:04;4.40;;;4.30;;
64678;SDS011;51094;53.864;27.676;2024-01-30T09:02:35;4.40;;;4.30;;
64678;SDS011;51094;53.864;27.676;2024-01-30T09:05:03;5.50;;;5.40;;
64678;SDS011;51094;53.864;27.676;2024-01-30T09:07:30;4.53;;;4.43;;
64678;SDS011;51094;53.864;27.676;2024-01-30T09:10:00;4.35;;;4.25;;
64678;SDS011;51094;53.864;27.676;2024-01-30T09:12:27;4.90;;;4.80;;
64678;SDS011;51094;53.864;27.676;2024-01-30T09:14:53;4.82;;;4.72;;
64678;SDS011;51094;53.864;27.676;2024-01-30T09:17:21;4.75;;;4.65;;
64678;SDS011;51094;53.864;27.676;2024-01-30T09:19:48;4.68;;;4.57;;
64678;SDS011;51094;53.864;27.676;2024-01-30T09:22:20;4.60;;;4.50;;
64678;SDS011;51094;53.864;27.676;2024-01-30T09:24:52;4.70;;;4.60;;
64678;SDS011;51094;53.864;27.676;2024-01-30T09:27:21;4.30;;;4.20;;
64678;SDS011;51094;53.864;27.676;2024-01-30T09:29:48;4.65;;;4.55;;
64678;SDS011;51094;53.864;27.676;2024-01-30T09:32:16;4.32;;;4.22;;
64678;SDS011;51094;53.864;27.676;2024-01-30T09:34:44;4.47;;;4.38;;
64678;SDS011;51094;53.864;27.676;2024-01-30T09:37:11;4.47;;;4.38;;
64678;SDS011;51094;53.864;27.676;2024-01-30T09:39:38;4.60;;;4.50;;
64678;SDS011;51094;53.864;27.676;2024-01-30T09:42:07;4.57;;;4.47;;
64678;SDS011;51094;53.864;27.676;2024-01-30T09:44:58;4.47;;;4.38;;
64678;SDS011;51094;53.864;27.676;2024-01-30T09:47:25;4.50;;;4.40;;
64678;SDS011;51094;53.864;27.676;2024-01-30T09:49:53;4.60;;;4.50;;
64678;SDS011;51094;53.864;27.676;2024-01-30T09:52:21;4.68;;;4.57;;
64678;SDS011;51094;53.864;27.676;2024-01-30T09:54:49;4.40;;;4.30;;
64678;SDS011;51094;53.864;27.676;2024-01-30T09:57:19;4.40;;;4.30;;
64678;SDS011;51094;53.864;27.676;2024-01-30T09:59:46;4.50;;;4.40;;
64678;SDS011;51094;53.864;27.676;2024-01-30T10:02:12;4.70;;;4.60;;
64678;SDS011;51094;53.864;27.676;2024-01-30T10:04:40;4.80;;;4.70;;
64678;SDS011;51094;53.864;27.676;2024-01-30T10:07:07;4.90;;;4.80;;
64678;SDS011;51094;53.864;27.676;2024-01-30T10:09:37;4.90;;;4.80;;
64678;SDS011;51094;53.864;27.676;2024-01-30T10:12:09;5.32;;;5.22;;
64678;SDS011;51094;53.864;27.676;2024-01-30T10:14:39;5.13;;;5.03;;
64678;SDS011;51094;53.864;27.676;2024-01-30T10:17:13;4.80;;;4.70;;
64678;SDS011;51094;53.864;27.676;2024-01-30T10:19:54;4.40;;;4.30;;
64678;SDS011;51094;53.864;27.676;2024-01-30T10:22:28;4.68;;;4.57;;
64678;SDS011;51094;53.864;27.676;2024-01-30T10:25:04;4.28;;;4.18;;
64678;SDS011;51094;53.864;27.676;2024-01-30T10:27:34;4.32;;;4.22;;
64678;SDS011;51094;53.864;27.676;2024-01-30T10:30:01;4.18;;;4.07;;
64678;SDS011;51094;53.864;27.676;2024-01-30T10:32:30;4.50;;;4.40;;
64678;SDS011;51094;53.864;27.676;2024-01-30T10:35:02;4.70;;;4.60;;
64678;SDS011;51094;53.864;27.676;2024-01-30T10:37:33;5.18;;;5.07;;
64678;SDS011;51094;53.864;27.676;2024-01-30T10:40:04;4.93;;;4.82;;
64678;SDS011;51094;53.864;27.676;2024-01-30T10:42:34;4.38;;;4.28;;
64678;SDS011;51094;53.864;27.676;2024-01-30T10:45:07;4.78;;;4.68;;
64678;SDS011;51094;53.864;27.676;2024-01-30T10:47:59;4.80;;;4.70;;
64678;SDS011;51094;53.864;27.676;2024-01-30T10:50:27;4.85;;;4.75;;
64678;SDS011;51094;53.864;27.676;2024-01-30T10:52:55;4.85;;;4.75;;
64678;SDS011;51094;53.864;27.676;2024-01-30T10:55:25;5.07;;;4.97;;
64678;SDS011;51094;53.864;27.676;2024-01-30T10:57:57;4.63;;;4.57;;
64678;SDS011;51094;53.864;27.676;2024-01-30T11:00:28;4.90;;;4.80;;
64678;SDS011;51094;53.864;27.676;2024-01-30T11:02:55;4.88;;;4.78;;
64678;SDS011;51094;53.864;27.676;2024-01-30T11:05:25;4.80;;;4.70;;
64678;SDS011;51094;53.864;27.676;2024-01-30T11:08:12;5.22;;;5.13;;
64678;SDS011;51094;53.864;27.676;2024-01-30T11:10:55;5.13;;;5.03;;
64678;SDS011;51094;53.864;27.676;2024-01-30T11:13:29;5.03;;;4.93;;
64678;SDS011;51094;53.864;27.676;2024-01-30T11:16:00;4.90;;;4.80;;
64678;SDS011;51094;53.864;27.676;2024-01-30T11:18:30;4.93;;;4.82;;
64678;SDS011;51094;53.864;27.676;2024-01-30T11:20:58;5.15;;;5.05;;
64678;SDS011;51094;53.864;27.676;2024-01-30T11:23:28;4.97;;;4.88;;
64678;SDS011;51094;53.864;27.676;2024-01-30T11:25:55;4.78;;;4.68;;
64678;SDS011;51094;53.864;27.676;2024-01-30T11:28:24;5.03;;;4.93;;
64678;SDS011;51094;53.864;27.676;2024-01-30T11:30:51;5.25;;;5.15;;
64678;SDS011;51094;53.864;27.676;2024-01-30T11:33:30;4.95;;;4.85;;
64678;SDS011;51094;53.864;27.676;2024-01-30T11:36:02;5.03;;;4.93;;
64678;SDS011;51094;53.864;27.676;2024-01-30T11:38:33;4.65;;;4.55;;
64678;SDS011;51094;53.864;27.676;2024-01-30T11:41:03;5.07;;;4.97;;
64678;SDS011;51094;53.864;27.676;2024-01-30T11:43:30;5.28;;;5.18;;
64678;SDS011;51094;53.864;27.676;2024-01-30T11:46:00;4.93;;;4.82;;
64678;SDS011;51094;53.864;27.676;2024-01-30T11:48:29;4.97;;;4.88;;
64678;SDS011;51094;53.864;27.676;2024-01-30T11:50:58;4.78;;;4.68;;
64678;SDS011;51094;53.864;27.676;2024-01-30T11:53:25;5.03;;;4.93;;
64678;SDS011;51094;53.864;27.676;2024-01-30T11:55:52;5.20;;;5.10;;
64678;SDS011;51094;53.864;27.676;2024-01-30T11:58:24;5.47;;;5.38;;
64678;SDS011;51094;53.864;27.676;2024-01-30T12:00:55;5.00;;;4.90;;
64678;SDS011;51094;53.864;27.676;2024-01-30T12:03:25;4.88;;;4.78;;
64678;SDS011;51094;53.864;27.676;2024-01-30T12:05:55;4.78;;;4.68;;
64678;SDS011;51094;53.864;27.676;2024-01-30T12:08:24;4.95;;;4.85;;
64678;SDS011;51094;53.864;27.676;2024-01-30T12:10:57;5.10;;;5.00;;
64678;SDS011;51094;53.864;27.676;2024-01-30T12:13:34;5.50;;;5.40;;
64678;SDS011;51094;53.864;27.676;2024-01-30T12:16:02;5.00;;;4.90;;
64678;SDS011;51094;53.864;27.676;2024-01-30T12:18:29;5.15;;;5.05;;
64678;SDS011;51094;53.864;27.676;2024-01-30T12:21:00;4.88;;;4.78;;
64678;SDS011;51094;53.864;27.676;2024-01-30T12:23:27;4.70;;;4.60;;
64678;SDS011;51094;53.864;27.676;2024-01-30T12:25:55;4.85;;;4.75;;
64678;SDS011;51094;53.864;27.676;2024-01-30T12:28:22;5.05;;;4.95;;
64678;SDS011;51094;53.864;27.676;2024-01-30T12:30:49;5.50;;;5.40;;
64678;SDS011;51094;53.864;27.676;2024-01-30T12:33:18;4.85;;;4.75;;
64678;SDS011;51094;53.864;27.676;2024-01-30T12:35:46;5.00;;;4.90;;
64678;SDS011;51094;53.864;27.676;2024-01-30T12:38:28;4.82;;;4.72;;
64678;SDS011;51094;53.864;27.676;2024-01-30T12:40:55;5.28;;;5.18;;
64678;SDS011;51094;53.864;27.676;2024-01-30T12:43:24;5.53;;;5.43;;
64678;SDS011;51094;53.864;27.676;2024-01-30T12:46:04;6.13;;;6.03;;
64678;SDS011;51094;53.864;27.676;2024-01-30T12:48:31;6.90;;;6.80;;
64678;SDS011;51094;53.864;27.676;2024-01-30T12:50:58;6.57;;;6.47;;
64678;SDS011;51094;53.864;27.676;2024-01-30T12:53:25;6.40;;;6.30;;
64678;SDS011;51094;53.864;27.676;2024-01-30T12:55:53;7.20;;;7.00;;
64678;SDS011;51094;53.864;27.676;2024-01-30T12:58:21;7.45;;;7.35;;
64678;SDS011;51094;53.864;27.676;2024-01-30T13:00:48;8.40;;;8.20;;
64678;SDS011;51094;53.864;27.676;2024-01-30T13:03:15;8.70;;;8.50;;
64678;SDS011;51094;53.864;27.676;2024-01-30T13:05:42;9.98;;;9.68;;
64678;SDS011;51094;53.864;27.676;2024-01-30T13:08:09;8.90;;;8.70;;
64678;SDS011;51094;53.864;27.676;2024-01-30T13:10:40;8.30;;;8.10;;
64678;SDS011;51094;53.864;27.676;2024-01-30T13:13:07;8.68;;;8.48;;
64678;SDS011;51094;53.864;27.676;2024-01-30T13:15:44;7.57;;;7.38;;
64678;SDS011;51094;53.864;27.676;2024-01-30T13:18:11;5.80;;;5.70;;
64678;SDS011;51094;53.864;27.676;2024-01-30T13:20:39;7.03;;;6.93;;
64678;SDS011;51094;53.864;27.676;2024-01-30T13:23:05;9.63;;;9.43;;
64678;SDS011;51094;53.864;27.676;2024-01-30T13:25:32;10.30;;;10.02;;
64678;SDS011;51094;53.864;27.676;2024-01-30T13:27:59;10.60;;;10.30;;
64678;SDS011;51094;53.864;27.676;2024-01-30T13:30:26;8.68;;;8.48;;
64678;SDS011;51094;53.864;27.676;2024-01-30T13:32:53;8.27;;;8.07;;
64678;SDS011;51094;53.864;27.676;2024-01-30T13:35:23;5.72;;;5.63;;
64678;SDS011;51094;53.864;27.676;2024-01-30T13:37:50;6.78;;;6.68;;
64678;SDS011;51094;53.864;27.676;2024-01-30T13:40:17;5.97;;;5.78;;
64678;SDS011;51094;53.864;27.676;2024-01-30T13:42:47;6.90;;;6.77;;
64678;SDS011;51094;53.864;27.676;2024-01-30T13:45:15;7.00;;;6.90;;
64678;SDS011;51094;53.864;27.676;2024-01-30T13:47:42;6.25;;;6.15;;
64678;SDS011;51094;53.864;27.676;2024-01-30T13:50:11;6.18;;;6.07;;
64678;SDS011;51094;53.864;27.676;2024-01-30T13:55:11;5.72;;;5.63;;
64678;SDS011;51094;53.864;27.676;2024-01-30T13:57:39;5.72;;;5.53;;
64678;SDS011;51094;53.864;27.676;2024-01-30T14:00:07;5.35;;;5.25;;
64678;SDS011;51094;53.864;27.676;2024-01-30T14:02:41;5.10;;;5.00;;
64678;SDS011;51094;53.864;27.676;2024-01-30T14:05:19;5.32;;;5.22;;
64678;SDS011;51094;53.864;27.676;2024-01-30T14:07:48;5.20;;;5.10;;
64678;SDS011;51094;53.864;27.676;2024-01-30T14:10:16;5.20;;;5.10;;
64678;SDS011;51094;53.864;27.676;2024-01-30T14:12:43;5.13;;;5.03;;
64678;SDS011;51094;53.864;27.676;2024-01-30T14:15:11;5.60;;;5.50;;
64678;SDS011;51094;53.864;27.676;2024-01-30T14:17:53;5.47;;;5.30;;
64678;SDS011;51094;53.864;27.676;2024-01-30T14:20:22;5.32;;;5.22;;
64678;SDS011;51094;53.864;27.676;2024-01-30T14:22:57;5.40;;;5.30;;
64678;SDS011;51094;53.864;27.676;2024-01-30T14:25:25;5.40;;;5.30;;
64678;SDS011;51094;53.864;27.676;2024-01-30T14:27:55;5.68;;;5.57;;
64678;SDS011;51094;53.864;27.676;2024-01-30T14:30:22;5.50;;;5.40;;
64678;SDS011;51094;53.864;27.676;2024-01-30T14:32:52;5.82;;;5.72;;
64678;SDS011;51094;53.864;27.676;2024-01-30T14:35:19;6.10;;;6.00;;
64678;SDS011;51094;53.864;27.676;2024-01-30T14:37:47;5.97;;;5.88;;
64678;SDS011;51094;53.864;27.676;2024-01-30T14:40:17;5.60;;;5.50;;
64678;SDS011;51094;53.864;27.676;2024-01-30T14:42:46;5.40;;;5.30;;
64678;SDS011;51094;53.864;27.676;2024-01-30T14:45:14;5.60;;;5.50;;
64678;SDS011;51094;53.864;27.676;2024-01-30T14:47:42;5.63;;;5.53;;
64678;SDS011;51094;53.864;27.676;2024-01-30T14:50:12;5.40;;;5.30;;